• Join FlightAware (Why Join?)
  • Login
  • US Flag 
01:38PM EDT


 

Airport Tracker/Info


-or-


 

Live Flight TrackerFlight Track Log ✈ WBR2634 ✈ 10-Jul-2013 ✈ KBRL - KORD

Flight Track Log - Related Links

Times and Time Zones

All times are in EDT time to prevent confusion due to time zone crossing. See the WBR2634 flight status page for this flight to view local times or setup timezone preferences in your user account.

Time Position Orientation Groundspeed Altitude Reporting Facility
EDT Latitude Longitude Course Direction KTS MPH feet Rate Location/Type
05:40PM 40.8208 -91.0767 73° East 107 123 3,100  Level Chicago Center
05:41PM 40.8559 -90.7881 57° Northeast  Level FlightAware Approximate
05:41PM 40.8319 -91.0344 71° East 116 133 4,000  Level Chicago Center
05:42PM 40.8704 -90.7349 72° East  Level FlightAware Approximate
05:42PM 40.8461 -90.9958 64° Northeast 116 133 4,800  Level Chicago Center
05:43PM 40.8842 -90.6795 73° East  Level FlightAware Approximate
05:43PM 40.8603 -90.9553 65° Northeast 119 137 5,600  Level Chicago Center
05:44PM 40.8972 -90.6237 73° East  Level FlightAware Approximate
05:44PM 40.8742 -90.9122 67° East 125 144 6,300  Level Chicago Center
05:45PM 40.9101 -90.5680 73° East  Level FlightAware Approximate
05:45PM 40.8889 -90.8689 66° East 128 147 7,100  Level Chicago Center
05:46PM 40.9061 -90.8147 67° East 132 152 7,900 720 Climbing Chicago Center
05:47PM 40.9203 -90.7672 68° East 137 158 8,600 540 Climbing Chicago Center
05:48PM 40.9381 -90.7233 62° Northeast 136 157 9,100 240 Climbing Chicago Center
05:49PM 40.9572 -90.6706 64° Northeast 155 178 9,100  Level Chicago Center
05:50PM 40.9769 -90.6181 64° Northeast 159 183 9,100  Level Chicago Center
05:51PM 40.9908 -90.5664 70° East 154 177 9,100 -60 Level Chicago Center
05:52PM 41.0058 -90.5139 69° East 152 175 9,000 -120 Descending Chicago Center
05:53PM 41.0256 -90.4525 67° East 151 174 8,900 -60 Descending Chicago Center
05:54PM 41.0431 -90.4014 66° East 152 175 8,900  Level Chicago Center
05:55PM 41.0569 -90.3500 70° East 150 173 8,900  Level Chicago Center
05:56PM 41.0758 -90.3033 62° Northeast 145 167 8,900  Level Chicago Center
05:57PM 41.0947 -90.2556 62° Northeast 145 167 9,000  Climbing Chicago Center
05:58PM 41.1111 -90.2044 67° East 149 171 9,000  Level Chicago Center
05:59PM 41.1281 -90.1519 67° East 154 177 9,000  Level Chicago Center
06:00PM 41.1464 -90.0928 68° East 147 169 9,000  Level Chicago Center
06:01PM 41.1631 -90.0419 66° East 148 170 9,000  Level Chicago Center
06:02PM 41.1794 -89.9892 68° East 153 176 9,100  Climbing Chicago Center
06:03PM 41.1958 -89.9386 67° East 150 173 9,000 -60 Descending Chicago Center
06:04PM 41.2119 -89.8878 67° East 150 173 9,000  Level Chicago Center
06:05PM 41.2286 -89.8367 67° East 150 173 9,000  Level Chicago Center
06:06PM 41.2442 -89.7847 68° East 151 174 9,000  Level Chicago Center
06:08PM 41.2650 -89.7247 65° Northeast 148 170 9,000  Level Chicago Center
06:09PM 41.2819 -89.6736 66° East 151 174 9,000  Level Chicago Center
06:10PM 41.2986 -89.6239 66° East 147 169 9,000  Level Chicago Center
06:11PM 41.3136 -89.5733 68° East 147 169 9,100 -60 Climbing Chicago Center
06:12PM 41.3311 -89.5214 66° East 152 175 8,900 -300 Descending Chicago Center
06:13PM 41.3486 -89.4650 68° East 161 185 8,600 -300 Descending Chicago Center
06:14PM 41.3669 -89.4106 66° East 162 186 8,300 -300 Descending Chicago Center
06:15PM 41.3869 -89.3428 69° East 163 188 8,000 -180 Descending Chicago Center
06:16PM 41.4036 -89.2881 68° East 161 185 8,000  Level Chicago Center
06:17PM 41.4208 -89.2369 66° East 154 177 8,000  Level Chicago Center
06:18PM 41.4361 -89.1794 70° East 150 173 8,000  Level Chicago Center
06:19PM 41.4525 -89.1258 68° East 155 178 8,100  Climbing Chicago Center
06:20PM 41.4706 -89.0728 66° East 158 182 8,000 -60 Descending Chicago Center
06:21PM 41.4858 -89.0183 69° East 158 182 8,000  Level Chicago Center
06:22PM 41.5008 -88.9639 70° East 157 181 8,000  Level Chicago Center
06:23PM 41.5211 -88.9000 67° East 157 181 8,100  Climbing Chicago Center
06:24PM 41.5383 -88.8472 66° East 155 178 8,000  Descending Chicago Center
06:25PM 41.5567 -88.7956 65° Northeast 156 180 8,100  Climbing Chicago Center
06:26PM 41.5750 -88.7414 66° East 159 183 8,000  Descending Chicago Center
06:27PM 41.5894 -88.6858 71° East 159 183 8,100  Climbing Chicago Center
06:28PM 41.6089 -88.6211 68° East 158 182 8,100 -60 Level Chicago Center
06:29PM 41.6325 -88.5717 57° Northeast 159 183 8,000 -60 Descending Chicago Center
06:30PM 41.6569 -88.5261 54° Northeast 153 176 8,000  Level Chicago Center
06:31PM 41.6781 -88.4719 62° Northeast 164 189 8,100  Climbing Chicago Center
06:32PM 41.6989 -88.4103 66° East 181 208 8,100  Level Chicago Center
06:33PM 41.7211 -88.3506 63° Northeast 180 207 8,100 -480 Level Chicago Center
06:34PM 41.7489 -88.2742 64° Northeast 190 219 7,200 -900 Descending Chicago Center
06:35PM 41.7722 -88.2089 64° Northeast 194 223 6,300 -900 Descending Chicago Center
06:36PM 41.7947 -88.1497 63° Northeast 187 215 5,400 -840 Descending Chicago Center
06:37PM 41.8194 -88.0922 60° Northeast 182 209 4,600 -900 Descending Chicago Center
06:38PM 41.8442 -88.0344 60° Northeast 180 207 3,600 -1,080 Descending Chicago Center
06:39PM 41.8833 -87.9833 44° Northeast 160 184 2,700 -1,020 Descending Chicago TRACON
06:40PM 41.9167 -87.9500 37° Northeast 171 197 1,800 -900 Descending Chicago TRACON
06:41PM 41.9333 -87.9167 56° Northeast 156 180 1,000 -900 Descending Chicago TRACON
06:44PM 41.9667 -87.9000 56° Northeast  Level FlightAware Approximate